sensor_id;sensor_type;location;lat;lon;timestamp;pressure;altitude;pressure_sealevel;temperature;humidity
6668;BME280;3370;47.712;9.082;2023-02-28T00:00:35;97392.22;;;-1.06;70.79
6668;BME280;3370;47.712;9.082;2023-02-28T00:03:02;97391.41;;;-1.05;70.57
6668;BME280;3370;47.712;9.082;2023-02-28T00:05:29;97393.97;;;-0.97;70.59
6668;BME280;3370;47.712;9.082;2023-02-28T00:07:55;97393.09;;;-1.01;70.96
6668;BME280;3370;47.712;9.082;2023-02-28T00:10:28;97394.75;;;-1.06;71.12
6668;BME280;3370;47.712;9.082;2023-02-28T00:12:58;97387.22;;;-0.95;70.50
6668;BME280;3370;47.712;9.082;2023-02-28T00:15:24;97395.69;;;-0.91;70.10
6668;BME280;3370;47.712;9.082;2023-02-28T00:17:51;97400.63;;;-1.07;70.55
6668;BME280;3370;47.712;9.082;2023-02-28T00:20:18;97398.97;;;-1.02;70.64
6668;BME280;3370;47.712;9.082;2023-02-28T00:22:47;97399.78;;;-1.06;70.76
6668;BME280;3370;47.712;9.082;2023-02-28T00:25:17;97393.88;;;-1.11;71.00
6668;BME280;3370;47.712;9.082;2023-02-28T00:27:44;97394.72;;;-1.09;71.14
6668;BME280;3370;47.712;9.082;2023-02-28T00:30:14;97394.78;;;-1.03;70.85
6668;BME280;3370;47.712;9.082;2023-02-28T00:32:40;97389.72;;;-1.03;70.56
6668;BME280;3370;47.712;9.082;2023-02-28T00:35:08;97393.94;;;-1.03;70.68
6668;BME280;3370;47.712;9.082;2023-02-28T00:37:34;97388.88;;;-1.03;70.47
6668;BME280;3370;47.712;9.082;2023-02-28T00:40:00;97383.00;;;-1.01;70.51
6668;BME280;3370;47.712;9.082;2023-02-28T00:42:26;97379.63;;;-1.03;70.45
6668;BME280;3370;47.712;9.082;2023-02-28T00:44:52;97380.44;;;-1.05;70.71
6668;BME280;3370;47.712;9.082;2023-02-28T00:47:18;97385.47;;;-1.10;70.83
6668;BME280;3370;47.712;9.082;2023-02-28T00:49:44;97383.75;;;-1.16;71.22
6668;BME280;3370;47.712;9.082;2023-02-28T00:52:10;97384.63;;;-1.10;70.85
6668;BME280;3370;47.712;9.082;2023-02-28T00:54:35;97384.63;;;-1.09;71.05
6668;BME280;3370;47.712;9.082;2023-02-28T00:57:01;97380.44;;;-1.07;70.93
6668;BME280;3370;47.712;9.082;2023-02-28T00:59:27;97379.56;;;-1.12;71.09
6668;BME280;3370;47.712;9.082;2023-02-28T01:01:53;97383.00;;;-1.01;70.53
6668;BME280;3370;47.712;9.082;2023-02-28T01:04:19;97378.81;;;-0.99;70.45
6668;BME280;3370;47.712;9.082;2023-02-28T01:06:45;97374.56;;;-1.03;70.36
6668;BME280;3370;47.712;9.082;2023-02-28T01:09:11;97378.78;;;-1.05;70.87
6668;BME280;3370;47.712;9.082;2023-02-28T01:11:38;97371.22;;;-1.05;70.86
6668;BME280;3370;47.712;9.082;2023-02-28T01:14:04;97377.94;;;-1.07;70.50
6668;BME280;3370;47.712;9.082;2023-02-28T01:16:31;97375.34;;;-1.14;71.08
6668;BME280;3370;47.712;9.082;2023-02-28T01:18:57;97365.28;;;-1.10;71.19
6668;BME280;3370;47.712;9.082;2023-02-28T01:21:23;97369.47;;;-1.09;70.98
6668;BME280;3370;47.712;9.082;2023-02-28T01:23:50;97372.88;;;-1.02;70.58
6668;BME280;3370;47.712;9.082;2023-02-28T01:26:20;97372.03;;;-1.04;70.59
6668;BME280;3370;47.712;9.082;2023-02-28T01:28:46;97377.06;;;-1.07;70.82
6668;BME280;3370;47.712;9.082;2023-02-28T01:31:13;97377.88;;;-1.11;71.17
6668;BME280;3370;47.712;9.082;2023-02-28T01:33:39;97377.06;;;-1.10;71.28
6668;BME280;3370;47.712;9.082;2023-02-28T01:36:19;97382.97;;;-1.07;71.53
6668;BME280;3370;47.712;9.082;2023-02-28T01:38:46;97376.25;;;-1.02;71.01
6668;BME280;3370;47.712;9.082;2023-02-28T01:41:21;97378.81;;;-0.97;70.62
6668;BME280;3370;47.712;9.082;2023-02-28T01:46:14;97377.91;;;-1.10;70.95
6668;BME280;3370;47.712;9.082;2023-02-28T01:48:48;97377.94;;;-1.01;71.14
6668;BME280;3370;47.712;9.082;2023-02-28T01:51:46;97379.59;;;-1.06;71.27
6668;BME280;3370;47.712;9.082;2023-02-28T01:54:24;97384.63;;;-1.12;71.39
6668;BME280;3370;47.712;9.082;2023-02-28T01:56:58;97379.56;;;-1.09;71.21
6668;BME280;3370;47.712;9.082;2023-02-28T01:59:44;97379.56;;;-1.09;71.21
6668;BME280;3370;47.712;9.082;2023-02-28T02:02:20;97381.28;;;-1.08;71.12
6668;BME280;3370;47.712;9.082;2023-02-28T02:05:14;97378.78;;;-1.05;71.10
6668;BME280;3370;47.712;9.082;2023-02-28T02:07:44;97372.88;;;-1.07;71.11
6668;BME280;3370;47.712;9.082;2023-02-28T02:10:18;97368.72;;;-0.97;70.67
6668;BME280;3370;47.712;9.082;2023-02-28T02:19:16;97365.28;;;-1.05;70.65
6668;BME280;3370;47.712;9.082;2023-02-28T02:22:29;97366.09;;;-1.14;71.36
6668;BME280;3370;47.712;9.082;2023-02-28T02:34:16;97365.25;;;-1.13;71.30
6668;BME280;3370;47.712;9.082;2023-02-28T02:36:53;97364.41;;;-1.15;71.38
6668;BME280;3370;47.712;9.082;2023-02-28T02:39:38;97365.25;;;-1.13;71.37
6668;BME280;3370;47.712;9.082;2023-02-28T02:42:15;97361.91;;;-1.07;70.83
6668;BME280;3370;47.712;9.082;2023-02-28T02:44:50;97367.81;;;-1.10;70.87
6668;BME280;3370;47.712;9.082;2023-02-28T02:47:23;97365.31;;;-1.02;70.83
6668;BME280;3370;47.712;9.082;2023-02-28T02:49:53;97364.44;;;-1.06;70.36
6668;BME280;3370;47.712;9.082;2023-02-28T02:52:28;97372.00;;;-1.09;70.65
6668;BME280;3370;47.712;9.082;2023-02-28T02:54:57;97368.63;;;-1.14;71.04
6668;BME280;3370;47.712;9.082;2023-02-28T02:57:35;97367.81;;;-1.10;70.66
6668;BME280;3370;47.712;9.082;2023-02-28T03:00:05;97367.81;;;-1.10;70.24
6668;BME280;3370;47.712;9.082;2023-02-28T03:02:36;97368.63;;;-1.11;70.27
6668;BME280;3370;47.712;9.082;2023-02-28T03:05:12;97369.44;;;-1.15;70.66
6668;BME280;3370;47.712;9.082;2023-02-28T03:07:40;97361.09;;;-1.08;69.92
6668;BME280;3370;47.712;9.082;2023-02-28T03:10:31;97364.44;;;-1.12;69.98
6668;BME280;3370;47.712;9.082;2023-02-28T03:33:38;97348.44;;;-1.11;69.73
6668;BME280;3370;47.712;9.082;2023-02-28T03:36:13;97350.91;;;-1.20;69.56
6668;BME280;3370;47.712;9.082;2023-02-28T03:38:58;97346.72;;;-1.21;70.07
6668;BME280;3370;47.712;9.082;2023-02-28T03:41:57;97351.75;;;-1.21;70.01
6668;BME280;3370;47.712;9.082;2023-02-28T03:44:39;97352.63;;;-1.14;70.01
6668;BME280;3370;47.712;9.082;2023-02-28T03:47:22;97350.09;;;-1.19;70.08
6668;BME280;3370;47.712;9.082;2023-02-28T03:49:56;97347.53;;;-1.22;70.19
6668;BME280;3370;47.712;9.082;2023-02-28T03:52:30;97354.31;;;-1.15;70.04
6668;BME280;3370;47.712;9.082;2023-02-28T03:55:03;97364.41;;;-1.15;69.87
6668;BME280;3370;47.712;9.082;2023-02-28T04:00:30;97367.81;;;-1.10;69.90
6668;BME280;3370;47.712;9.082;2023-02-28T04:02:58;97360.19;;;-1.18;69.87
6668;BME280;3370;47.712;9.082;2023-02-28T04:05:25;97365.25;;;-1.11;69.67
6668;BME280;3370;47.712;9.082;2023-02-28T04:07:51;97366.06;;;-1.17;69.98
6668;BME280;3370;47.712;9.082;2023-02-28T04:10:18;97372.78;;;-1.19;70.09
6668;BME280;3370;47.712;9.082;2023-02-28T04:12:44;97366.06;;;-1.17;70.09
6668;BME280;3370;47.712;9.082;2023-02-28T04:15:10;97371.97;;;-1.20;70.10
6668;BME280;3370;47.712;9.082;2023-02-28T04:17:36;97371.09;;;-1.23;70.44
6668;BME280;3370;47.712;9.082;2023-02-28T04:20:03;97371.09;;;-1.20;70.51
6668;BME280;3370;47.712;9.082;2023-02-28T04:22:35;97371.13;;;-1.17;70.32
6668;BME280;3370;47.712;9.082;2023-02-28T04:25:01;97373.63;;;-1.20;70.44
6668;BME280;3370;47.712;9.082;2023-02-28T04:27:27;97364.38;;;-1.18;70.22
6668;BME280;3370;47.712;9.082;2023-02-28T04:29:53;97371.94;;;-1.18;70.03
6668;BME280;3370;47.712;9.082;2023-02-28T04:32:19;97369.44;;;-1.17;70.04
6668;BME280;3370;47.712;9.082;2023-02-28T04:34:44;97365.22;;;-1.16;70.27
6668;BME280;3370;47.712;9.082;2023-02-28T04:37:10;97374.50;;;-1.15;70.21
6668;BME280;3370;47.712;9.082;2023-02-28T04:39:37;97366.91;;;-1.18;70.77
6668;BME280;3370;47.712;9.082;2023-02-28T04:42:03;97373.66;;;-1.17;70.42
6668;BME280;3370;47.712;9.082;2023-02-28T04:44:29;97371.13;;;-1.17;70.41
6668;BME280;3370;47.712;9.082;2023-02-28T04:46:55;97369.44;;;-1.15;69.94
6668;BME280;3370;47.712;9.082;2023-02-28T04:49:20;97371.97;;;-1.17;69.90
6668;BME280;3370;47.712;9.082;2023-02-28T04:51:46;97375.31;;;-1.21;69.97
6668;BME280;3370;47.712;9.082;2023-02-28T04:54:13;97379.50;;;-1.21;70.47
6668;BME280;3370;47.712;9.082;2023-02-28T04:56:38;97381.22;;;-1.17;70.35
6668;BME280;3370;47.712;9.082;2023-02-28T04:59:04;97388.00;;;-1.10;69.81
6668;BME280;3370;47.712;9.082;2023-02-28T05:01:33;97387.09;;;-1.17;70.08
6668;BME280;3370;47.712;9.082;2023-02-28T05:04:02;97386.28;;;-1.14;70.11
6668;BME280;3370;47.712;9.082;2023-02-28T05:06:31;97384.59;;;-1.15;70.04
6668;BME280;3370;47.712;9.082;2023-02-28T05:08:58;97386.28;;;-1.14;69.98
6668;BME280;3370;47.712;9.082;2023-02-28T05:11:31;97388.81;;;-1.11;69.53
6668;BME280;3370;47.712;9.082;2023-02-28T05:14:02;97393.91;;;-1.06;69.08
6668;BME280;3370;47.712;9.082;2023-02-28T05:16:28;97388.84;;;-1.06;68.79
6668;BME280;3370;47.712;9.082;2023-02-28T05:18:54;97391.34;;;-1.14;68.96
6668;BME280;3370;47.712;9.082;2023-02-28T05:21:31;97388.81;;;-1.16;69.26
6668;BME280;3370;47.712;9.082;2023-02-28T05:24:01;97397.19;;;-1.17;69.06
6668;BME280;3370;47.712;9.082;2023-02-28T05:26:28;97401.38;;;-1.20;69.46
6668;BME280;3370;47.712;9.082;2023-02-28T05:28:54;97403.91;;;-1.19;69.27
6668;BME280;3370;47.712;9.082;2023-02-28T05:31:21;97400.53;;;-1.21;69.46
6668;BME280;3370;47.712;9.082;2023-02-28T05:33:47;97402.19;;;-1.26;69.77
6668;BME280;3370;47.712;9.082;2023-02-28T05:36:14;97398.84;;;-1.20;69.37
6668;BME280;3370;47.712;9.082;2023-02-28T05:38:39;97400.53;;;-1.21;69.34
6668;BME280;3370;47.712;9.082;2023-02-28T05:41:15;97403.06;;;-1.16;69.28
6668;BME280;3370;47.712;9.082;2023-02-28T05:43:41;97392.97;;;-1.16;68.81
6668;BME280;3370;47.712;9.082;2023-02-28T05:46:09;97395.53;;;-1.18;68.99
6668;BME280;3370;47.712;9.082;2023-02-28T05:48:38;97406.47;;;-1.11;69.11
6668;BME280;3370;47.712;9.082;2023-02-28T05:51:04;97412.38;;;-1.12;68.82
6668;BME280;3370;47.712;9.082;2023-02-28T05:53:31;97414.91;;;-1.12;68.77
6668;BME280;3370;47.712;9.082;2023-02-28T05:55:57;97413.19;;;-1.18;69.29
6668;BME280;3370;47.712;9.082;2023-02-28T05:58:23;97410.66;;;-1.16;68.70
6668;BME280;3370;47.712;9.082;2023-02-28T06:00:50;97419.84;;;-1.24;68.88
6668;BME280;3370;47.712;9.082;2023-02-28T06:03:16;97424.94;;;-1.21;68.97
6668;BME280;3370;47.712;9.082;2023-02-28T06:05:42;97426.59;;;-1.23;69.05
6668;BME280;3370;47.712;9.082;2023-02-28T06:08:08;97424.88;;;-1.26;69.06
6668;BME280;3370;47.712;9.082;2023-02-28T06:10:34;97429.94;;;-1.24;69.07
6668;BME280;3370;47.712;9.082;2023-02-28T06:13:02;97435.88;;;-1.16;69.12
6668;BME280;3370;47.712;9.082;2023-02-28T06:15:29;97418.25;;;-1.13;69.00
6668;BME280;3370;47.712;9.082;2023-02-28T06:17:56;97432.50;;;-1.18;68.71
6668;BME280;3370;47.712;9.082;2023-02-28T06:20:23;97441.75;;;-1.20;69.11
6668;BME280;3370;47.712;9.082;2023-02-28T06:22:50;97445.94;;;-1.22;68.79
6668;BME280;3370;47.712;9.082;2023-02-28T06:25:20;97446.78;;;-1.23;69.01
6668;BME280;3370;47.712;9.082;2023-02-28T06:27:45;97450.16;;;-1.21;69.12
6668;BME280;3370;47.712;9.082;2023-02-28T06:30:12;97455.22;;;-1.20;69.11
6668;BME280;3370;47.712;9.082;2023-02-28T06:32:38;97450.16;;;-1.21;69.27
6668;BME280;3370;47.712;9.082;2023-02-28T06:35:04;97453.53;;;-1.19;69.08
6668;BME280;3370;47.712;9.082;2023-02-28T06:37:32;97450.94;;;-1.25;69.22
6668;BME280;3370;47.712;9.082;2023-02-28T06:39:57;97462.72;;;-1.26;69.58
6668;BME280;3370;47.712;9.082;2023-02-28T06:42:24;97466.97;;;-1.20;69.94
6668;BME280;3370;47.712;9.082;2023-02-28T06:44:55;97456.06;;;-1.21;69.79
6668;BME280;3370;47.712;9.082;2023-02-28T06:47:21;97468.69;;;-1.16;69.01
6668;BME280;3370;47.712;9.082;2023-02-28T06:49:47;97467.88;;;-1.13;69.06
6668;BME280;3370;47.712;9.082;2023-02-28T06:52:14;97468.78;;;-1.07;68.69
6668;BME280;3370;47.712;9.082;2023-02-28T06:54:39;97468.75;;;-1.10;68.60
6668;BME280;3370;47.712;9.082;2023-02-28T06:57:05;97472.97;;;-1.10;68.71
6668;BME280;3370;47.712;9.082;2023-02-28T06:59:31;97472.97;;;-1.10;69.06
6668;BME280;3370;47.712;9.082;2023-02-28T07:01:57;97476.31;;;-1.10;69.07
6668;BME280;3370;47.712;9.082;2023-02-28T07:04:23;97483.06;;;-1.07;68.65
6668;BME280;3370;47.712;9.082;2023-02-28T07:06:48;97485.56;;;-1.09;68.74
6668;BME280;3370;47.712;9.082;2023-02-28T07:09:14;97487.22;;;-1.12;68.76
6668;BME280;3370;47.712;9.082;2023-02-28T07:11:41;97494.84;;;-1.08;68.63
6668;BME280;3370;47.712;9.082;2023-02-28T07:14:08;97496.56;;;-1.02;68.79
6668;BME280;3370;47.712;9.082;2023-02-28T07:16:35;97496.56;;;-1.07;69.19
6668;BME280;3370;47.712;9.082;2023-02-28T07:19:01;97503.31;;;-0.98;68.53
6668;BME280;3370;47.712;9.082;2023-02-28T07:21:27;97505.00;;;-1.00;68.79
6668;BME280;3370;47.712;9.082;2023-02-28T07:23:53;97502.47;;;-1.03;68.93
6668;BME280;3370;47.712;9.082;2023-02-28T07:26:20;97504.09;;;-1.08;68.88
6668;BME280;3370;47.712;9.082;2023-02-28T07:28:47;97499.94;;;-1.00;68.43
6668;BME280;3370;47.712;9.082;2023-02-28T07:31:14;97503.31;;;-1.01;68.17
6668;BME280;3370;47.712;9.082;2023-02-28T07:33:41;97512.56;;;-1.02;68.18
6668;BME280;3370;47.712;9.082;2023-02-28T07:36:11;97509.16;;;-1.05;68.62
6668;BME280;3370;47.712;9.082;2023-02-28T07:38:42;97508.31;;;-1.06;69.25
6668;BME280;3370;47.712;9.082;2023-02-28T07:41:09;97515.06;;;-1.05;69.13
6668;BME280;3370;47.712;9.082;2023-02-28T07:43:35;97517.66;;;-0.95;68.91
6668;BME280;3370;47.712;9.082;2023-02-28T07:46:08;97514.28;;;-0.94;69.17
6668;BME280;3370;47.712;9.082;2023-02-28T07:48:35;97511.84;;;-0.88;68.74
6668;BME280;3370;47.712;9.082;2023-02-28T07:51:01;97514.31;;;-0.91;68.75
6668;BME280;3370;47.712;9.082;2023-02-28T07:53:28;97507.59;;;-0.92;68.13
6668;BME280;3370;47.712;9.082;2023-02-28T07:55:58;97513.50;;;-0.87;68.44
6668;BME280;3370;47.712;9.082;2023-02-28T07:58:26;97508.50;;;-0.84;68.17
6668;BME280;3370;47.712;9.082;2023-02-28T08:00:52;97509.38;;;-0.79;68.09
6668;BME280;3370;47.712;9.082;2023-02-28T08:03:20;97507.72;;;-0.77;68.22
6668;BME280;3370;47.712;9.082;2023-02-28T08:05:47;97515.28;;;-0.77;68.03
6668;BME280;3370;47.712;9.082;2023-02-28T08:08:14;97522.81;;;-0.80;68.10
6668;BME280;3370;47.712;9.082;2023-02-28T08:10:40;97520.34;;;-0.77;68.17
6668;BME280;3370;47.712;9.082;2023-02-28T08:13:06;97526.19;;;-0.78;67.70
6668;BME280;3370;47.712;9.082;2023-02-28T08:15:32;97518.69;;;-0.73;68.60
6668;BME280;3370;47.712;9.082;2023-02-28T08:17:58;97511.09;;;-0.75;68.16
6668;BME280;3370;47.712;9.082;2023-02-28T08:20:25;97516.19;;;-0.69;68.26
6668;BME280;3370;47.712;9.082;2023-02-28T08:22:51;97522.97;;;-0.62;68.23
6668;BME280;3370;47.712;9.082;2023-02-28T08:25:18;97524.63;;;-0.64;68.29
6668;BME280;3370;47.712;9.082;2023-02-28T08:27:44;97528.94;;;-0.52;68.06
6668;BME280;3370;47.712;9.082;2023-02-28T08:30:12;97519.69;;;-0.48;67.96
6668;BME280;3370;47.712;9.082;2023-02-28T08:32:39;97520.50;;;-0.49;68.53
6668;BME280;3370;47.712;9.082;2023-02-28T08:35:06;97527.28;;;-0.42;67.58
6668;BME280;3370;47.712;9.082;2023-02-28T08:37:32;97523.09;;;-0.43;67.31
6668;BME280;3370;47.712;9.082;2023-02-28T08:39:58;97530.69;;;-0.42;67.27
6668;BME280;3370;47.712;9.082;2023-02-28T08:42:24;97527.31;;;-0.41;67.25
6668;BME280;3370;47.712;9.082;2023-02-28T08:44:50;97528.97;;;-0.44;67.14
6668;BME280;3370;47.712;9.082;2023-02-28T08:47:16;97531.50;;;-0.44;66.96
6668;BME280;3370;47.712;9.082;2023-02-28T08:49:41;97533.19;;;-0.43;66.80
6668;BME280;3370;47.712;9.082;2023-02-28T08:52:07;97539.91;;;-0.48;67.16
6668;BME280;3370;47.712;9.082;2023-02-28T08:54:33;97540.78;;;-0.42;66.71
6668;BME280;3370;47.712;9.082;2023-02-28T08:57:00;97541.59;;;-0.44;67.02
6668;BME280;3370;47.712;9.082;2023-02-28T08:59:26;97544.16;;;-0.43;66.82
6668;BME280;3370;47.712;9.082;2023-02-28T09:01:52;97543.28;;;-0.46;67.05
6668;BME280;3370;47.712;9.082;2023-02-28T09:04:18;97547.50;;;-0.42;66.93
6668;BME280;3370;47.712;9.082;2023-02-28T09:06:43;97553.41;;;-0.43;67.07
6668;BME280;3370;47.712;9.082;2023-02-28T09:09:10;97545.88;;;-0.35;66.74
6668;BME280;3370;47.712;9.082;2023-02-28T09:11:37;97550.13;;;-0.24;66.85
6668;BME280;3370;47.712;9.082;2023-02-28T09:14:03;97557.72;;;-0.27;66.75
6668;BME280;3370;47.712;9.082;2023-02-28T09:16:31;97555.19;;;-0.24;66.60
6668;BME280;3370;47.712;9.082;2023-02-28T09:18:57;97560.25;;;-0.27;66.14
6668;BME280;3370;47.712;9.082;2023-02-28T09:21:23;97556.03;;;-0.25;66.00
6668;BME280;3370;47.712;9.082;2023-02-28T09:23:50;97561.94;;;-0.24;65.92
6668;BME280;3370;47.712;9.082;2023-02-28T09:26:25;97556.91;;;-0.16;65.81
6668;BME280;3370;47.712;9.082;2023-02-28T09:28:52;97556.06;;;-0.18;65.27
6668;BME280;3370;47.712;9.082;2023-02-28T09:31:24;97557.78;;;-0.16;65.46
6668;BME280;3370;47.712;9.082;2023-02-28T09:33:53;97556.94;;;-0.13;65.81
6668;BME280;3370;47.712;9.082;2023-02-28T09:36:20;97552.72;;;-0.13;66.32
6668;BME280;3370;47.712;9.082;2023-02-28T09:38:46;97553.59;;;-0.09;66.20
6668;BME280;3370;47.712;9.082;2023-02-28T09:43:48;97553.59;;;-0.09;66.60
6668;BME280;3370;47.712;9.082;2023-02-28T09:46:43;97564.53;;;-0.12;66.20
6668;BME280;3370;47.712;9.082;2023-02-28T09:49:28;97564.56;;;-0.10;66.38
6668;BME280;3370;47.712;9.082;2023-02-28T09:52:05;97568.78;;;-0.05;66.76
6668;BME280;3370;47.712;9.082;2023-02-28T09:54:36;97572.16;;;-0.07;66.69
6668;BME280;3370;47.712;9.082;2023-02-28T10:00:19;97576.34;;;-0.12;67.57
6668;BME280;3370;47.712;9.082;2023-02-28T10:06:28;97572.94;;;-0.17;67.84
6668;BME280;3370;47.712;9.082;2023-02-28T10:09:17;97574.69;;;-0.07;67.82
6668;BME280;3370;47.712;9.082;2023-02-28T10:11:44;97573.94;;;0.09;67.16
6668;BME280;3370;47.712;9.082;2023-02-28T10:14:23;97577.31;;;0.11;66.72
6668;BME280;3370;47.712;9.082;2023-02-28T10:16:57;97582.38;;;0.14;66.48
6668;BME280;3370;47.712;9.082;2023-02-28T10:19:40;97584.91;;;0.11;66.56
6668;BME280;3370;47.712;9.082;2023-02-28T10:22:41;97586.56;;;0.06;66.33
6668;BME280;3370;47.712;9.082;2023-02-28T10:25:22;97590.78;;;0.12;65.95
6668;BME280;3370;47.712;9.082;2023-02-28T10:27:51;97596.72;;;0.15;66.19
6668;BME280;3370;47.712;9.082;2023-02-28T10:30:19;97594.13;;;0.06;67.13
6668;BME280;3370;47.712;9.082;2023-02-28T10:32:51;97599.22;;;0.08;67.41
6668;BME280;3370;47.712;9.082;2023-02-28T10:35:22;97596.72;;;0.15;66.55
6668;BME280;3370;47.712;9.082;2023-02-28T10:37:57;97597.59;;;0.27;66.07
6668;BME280;3370;47.712;9.082;2023-02-28T10:45:23;97593.41;;;0.26;66.75
6668;BME280;3370;47.712;9.082;2023-02-28T10:47:57;97593.44;;;0.36;66.39
6668;BME280;3370;47.712;9.082;2023-02-28T10:56:19;97600.25;;;0.53;65.58
6668;BME280;3370;47.712;9.082;2023-02-28T11:06:57;97597.66;;;0.39;66.85
6668;BME280;3370;47.712;9.082;2023-02-28T11:09:39;97601.09;;;0.47;66.14
6668;BME280;3370;47.712;9.082;2023-02-28T11:12:17;97602.78;;;0.57;65.50
6668;BME280;3370;47.712;9.082;2023-02-28T11:14:57;97603.66;;;0.63;65.71
6668;BME280;3370;47.712;9.082;2023-02-28T11:17:30;97598.59;;;0.70;65.25
6668;BME280;3370;47.712;9.082;2023-02-28T11:20:04;97596.91;;;0.63;65.64
6668;BME280;3370;47.712;9.082;2023-02-28T11:22:37;97596.09;;;0.72;65.40
6668;BME280;3370;47.712;9.082;2023-02-28T11:25:24;97592.75;;;0.82;64.86
6668;BME280;3370;47.712;9.082;2023-02-28T11:27:58;97589.38;;;0.85;65.21
6668;BME280;3370;47.712;9.082;2023-02-28T11:30:40;97594.41;;;0.75;65.75
6668;BME280;3370;47.712;9.082;2023-02-28T11:33:44;97583.47;;;0.87;65.88
6668;BME280;3370;47.712;9.082;2023-02-28T11:36:21;97581.78;;;0.92;65.52
6668;BME280;3370;47.712;9.082;2023-02-28T11:38:50;97582.66;;;1.13;64.22
6668;BME280;3370;47.712;9.082;2023-02-28T11:41:52;97581.81;;;1.09;64.59
6668;BME280;3370;47.712;9.082;2023-02-28T11:47:17;97587.72;;;1.11;64.46
6668;BME280;3370;47.712;9.082;2023-02-28T11:52:57;97582.69;;;1.16;64.04
6668;BME280;3370;47.712;9.082;2023-02-28T11:55:57;97581.84;;;1.22;63.78
6668;BME280;3370;47.712;9.082;2023-02-28T12:02:02;97590.28;;;1.24;63.52
6668;BME280;3370;47.712;9.082;2023-02-28T12:05:33;97582.66;;;1.19;63.45
6668;BME280;3370;47.712;9.082;2023-02-28T12:22:22;97575.09;;;1.25;64.24
6668;BME280;3370;47.712;9.082;2023-02-28T12:25:24;97575.91;;;1.30;63.91
6668;BME280;3370;47.712;9.082;2023-02-28T12:27:58;97591.13;;;1.37;63.38
6668;BME280;3370;47.712;9.082;2023-02-28T12:30:32;97587.75;;;1.24;63.46
6668;BME280;3370;47.712;9.082;2023-02-28T12:33:14;97589.41;;;1.23;64.50
6668;BME280;3370;47.712;9.082;2023-02-28T12:36:00;97577.63;;;1.34;63.30
6668;BME280;3370;47.712;9.082;2023-02-28T12:38:36;97570.03;;;1.36;63.23
6668;BME280;3370;47.712;9.082;2023-02-28T12:41:13;97566.59;;;1.34;63.64
6668;BME280;3370;47.712;9.082;2023-02-28T12:43:57;97566.63;;;1.43;62.63
6668;BME280;3370;47.712;9.082;2023-02-28T12:46:33;97567.47;;;1.41;63.28
6668;BME280;3370;47.712;9.082;2023-02-28T12:49:08;97567.47;;;1.36;63.08
6668;BME280;3370;47.712;9.082;2023-02-28T12:51:36;97562.41;;;1.36;62.88
6668;BME280;3370;47.712;9.082;2023-02-28T12:57:18;97565.78;;;1.40;63.32
6668;BME280;3370;47.712;9.082;2023-02-28T12:59:57;97566.59;;;1.45;62.54
6668;BME280;3370;47.712;9.082;2023-02-28T13:05:49;97570.84;;;1.40;63.53
6668;BME280;3370;47.712;9.082;2023-02-28T13:11:33;97559.84;;;1.47;65.25
6668;BME280;3370;47.712;9.082;2023-02-28T13:14:16;97560.69;;;1.52;64.98
6668;BME280;3370;47.712;9.082;2023-02-28T13:17:11;97559.03;;;1.52;63.70
6668;BME280;3370;47.712;9.082;2023-02-28T13:24:56;97553.94;;;1.51;63.91
6668;BME280;3370;47.712;9.082;2023-02-28T13:27:40;97553.91;;;1.65;64.20
6668;BME280;3370;47.712;9.082;2023-02-28T13:36:30;97561.53;;;1.63;63.15
6668;BME280;3370;47.712;9.082;2023-02-28T13:38:59;97567.47;;;1.56;63.62
6668;BME280;3370;47.712;9.082;2023-02-28T13:44:08;97571.69;;;1.46;63.76
6668;BME280;3370;47.712;9.082;2023-02-28T14:04:14;97573.38;;;1.53;64.04
6668;BME280;3370;47.712;9.082;2023-02-28T14:06:52;97578.44;;;1.60;64.20
6668;BME280;3370;47.712;9.082;2023-02-28T14:09:30;97577.59;;;1.53;63.36
6668;BME280;3370;47.712;9.082;2023-02-28T14:11:57;97576.75;;;1.40;63.62
6668;BME280;3370;47.712;9.082;2023-02-28T14:17:15;97582.66;;;1.31;64.11
6668;BME280;3370;47.712;9.082;2023-02-28T14:19:46;97584.38;;;1.29;64.29
6668;BME280;3370;47.712;9.082;2023-02-28T14:22:54;97583.53;;;1.29;64.32
6668;BME280;3370;47.712;9.082;2023-02-28T14:31:29;97572.53;;;1.28;64.54
6668;BME280;3370;47.712;9.082;2023-02-28T14:37:16;97576.75;;;1.34;64.57
6668;BME280;3370;47.712;9.082;2023-02-28T14:39:45;97572.53;;;1.38;63.96
6668;BME280;3370;47.712;9.082;2023-02-28T14:44:56;97579.28;;;1.46;64.05
6668;BME280;3370;47.712;9.082;2023-02-28T14:47:25;97580.16;;;1.36;63.79
6668;BME280;3370;47.712;9.082;2023-02-28T14:49:53;97578.44;;;1.58;63.53
6668;BME280;3370;47.712;9.082;2023-02-28T14:52:23;97578.41;;;1.90;62.29
6668;BME280;3370;47.712;9.082;2023-02-28T14:54:58;97574.13;;;2.00;61.98
6668;BME280;3370;47.712;9.082;2023-02-28T14:57:31;97580.00;;;2.24;61.86
6668;BME280;3370;47.712;9.082;2023-02-28T15:02:43;97580.47;;;2.97;60.15
6668;BME280;3370;47.712;9.082;2023-02-28T15:07:38;97586.06;;;3.48;59.35
6668;BME280;3370;47.712;9.082;2023-02-28T15:10:25;97579.75;;;3.86;58.61
6668;BME280;3370;47.712;9.082;2023-02-28T15:12:58;97584.69;;;4.05;57.11
6668;BME280;3370;47.712;9.082;2023-02-28T15:15:41;97584.44;;;4.26;56.79
6668;BME280;3370;47.712;9.082;2023-02-28T15:18:15;97579.97;;;4.45;55.79
6668;BME280;3370;47.712;9.082;2023-02-28T15:20:42;97575.72;;;4.46;55.87
6668;BME280;3370;47.712;9.082;2023-02-28T15:23:10;97580.69;;;4.55;55.19
6668;BME280;3370;47.712;9.082;2023-02-28T15:25:36;97587.47;;;4.56;55.49
6668;BME280;3370;47.712;9.082;2023-02-28T15:28:02;97579.69;;;4.68;55.34
6668;BME280;3370;47.712;9.082;2023-02-28T15:30:30;97577.81;;;4.83;54.77
6668;BME280;3370;47.712;9.082;2023-02-28T15:33:21;97583.06;;;4.70;55.17
6668;BME280;3370;47.712;9.082;2023-02-28T15:35:48;97578.91;;;4.63;55.53
6668;BME280;3370;47.712;9.082;2023-02-28T15:38:23;97584.28;;;4.38;56.60
6668;BME280;3370;47.712;9.082;2023-02-28T15:40:59;97585.16;;;4.39;56.69
6668;BME280;3370;47.712;9.082;2023-02-28T15:46:10;97584.91;;;4.59;55.80
6668;BME280;3370;47.712;9.082;2023-02-28T15:48:50;97591.63;;;4.65;55.80
6668;BME280;3370;47.712;9.082;2023-02-28T15:51:20;97586.00;;;4.39;56.18
6668;BME280;3370;47.712;9.082;2023-02-28T15:54:12;97584.03;;;4.60;55.63
6668;BME280;3370;47.712;9.082;2023-02-28T15:56:46;97584.09;;;4.57;55.98
6668;BME280;3370;47.712;9.082;2023-02-28T15:59:35;97579.19;;;4.40;56.21
6668;BME280;3370;47.712;9.082;2023-02-28T16:04:35;97582.09;;;4.08;56.85
6668;BME280;3370;47.712;9.082;2023-02-28T16:07:05;97579.63;;;4.01;56.95
6668;BME280;3370;47.712;9.082;2023-02-28T16:09:31;97581.47;;;3.87;57.59
6668;BME280;3370;47.712;9.082;2023-02-28T16:12:02;97577.28;;;3.81;57.78
6668;BME280;3370;47.712;9.082;2023-02-28T16:14:29;97578.19;;;3.73;57.81
6668;BME280;3370;47.712;9.082;2023-02-28T16:17:07;97582.47;;;3.71;57.90
6668;BME280;3370;47.712;9.082;2023-02-28T16:19:37;97582.59;;;3.55;58.43
6668;BME280;3370;47.712;9.082;2023-02-28T16:22:02;97590.28;;;3.46;58.88
6668;BME280;3370;47.712;9.082;2023-02-28T16:24:28;97599.78;;;3.25;59.03
6668;BME280;3370;47.712;9.082;2023-02-28T16:26:55;97595.69;;;3.03;59.52